Aviation Digital Data Service (ADDS)

Output produced by METARs form (0329 UTC 23 June 2017)
found at http://aviationweather.gov/adds/metars/
 
KLGA 230247Z 2303/2324 19008KT P6SM SCT050 BKN100 
     FM230500 20006KT P6SM SCT050 BKN100 
     FM230800 20005KT 5SM BR SCT005 BKN100 
     FM231000 20005KT P6SM SCT005 BKN100 
     FM231200 20006KT P6SM VCSH SCT005 BKN100 
     FM231500 22010KT P6SM VCSH SCT025 BKN100 
     FM231900 21015KT P6SM VCTS SCT025CB BKN050